Time;durP1;ratioP1;P1;durP2;ratioP2;P2;SDS_P1;SDS_P2;PMS_P1;PMS_P2;Temp;Humidity;BMP_temperature;BMP_pressure;BME280_temperature;BME280_humidity;BME280_pressure;Samples;Min_cycle;Max_cycle;Signal;HPM_P1;HPM_P2
2022/08/17 00:00:38;;;;;;;32.72;29.38;;;19.40;99.90;;;;;;5025193;28;20052;-73
2022/08/17 00:03:14;;;;;;;32.15;28.88;;;19.40;99.90;;;;;;5042596;28;20404;-73
2022/08/17 00:05:48;;;;;;;31.55;28.45;;;19.40;99.90;;;;;;5040532;28;20123;-72
2022/08/17 00:08:17;;;;;;;29.02;26.27;;;19.30;99.90;;;;;;5057573;28;20103;-73
2022/08/17 00:10:44;;;;;;;33.90;30.58;;;19.30;99.90;;;;;;5043036;28;20091;-73
2022/08/17 00:13:23;;;;;;;32.55;29.33;;;19.40;99.90;;;;;;5049581;28;20033;-71
2022/08/17 00:15:49;;;;;;;36.40;32.58;;;19.40;99.90;;;;;;5031883;28;20101;-70
2022/08/17 00:18:14;;;;;;;37.80;33.67;;;19.30;99.90;;;;;;5026754;28;20044;-70
2022/08/17 00:20:40;;;;;;;35.47;31.95;;;19.30;99.90;;;;;;5046857;28;20041;-70
2022/08/17 00:23:12;;;;;;;34.20;30.60;;;19.30;99.90;;;;;;5046610;28;20115;-69
2022/08/17 00:25:40;;;;;;;36.00;31.70;;;19.30;99.90;;;;;;5052076;28;20535;-69
2022/08/17 00:28:06;;;;;;;35.92;32.20;;;19.30;99.90;;;;;;5042425;28;20539;-70
2022/08/17 00:30:34;;;;;;;35.58;32.05;;;19.30;99.90;;;;;;5045317;28;20144;-69
2022/08/17 00:33:06;;;;;;;35.38;31.88;;;19.30;99.90;;;;;;5045176;28;20087;-70
2022/08/17 00:35:33;;;;;;;38.08;34.20;;;19.30;99.90;;;;;;5028919;28;20083;-70
2022/08/17 00:37:59;;;;;;;38.22;33.35;;;19.30;99.90;;;;;;5050223;28;20045;-69
2022/08/17 00:40:25;;;;;;;34.15;30.58;;;19.30;99.90;;;;;;5031929;28;20044;-70
2022/08/17 00:42:52;;;;;;;35.20;31.70;;;19.30;99.90;;;;;;5049360;28;20041;-70
2022/08/17 00:45:19;;;;;;;35.55;32.22;;;19.30;99.90;;;;;;5041263;28;20110;-70
2022/08/17 00:47:45;;;;;;;37.95;34.17;;;19.30;99.90;;;;;;5049842;28;20492;-70
2022/08/17 00:50:14;;;;;;;36.88;33.17;;;19.30;99.90;;;;;;5045981;28;20155;-69
2022/08/17 00:52:49;;;;;;;40.05;36.13;;;19.30;99.90;;;;;;5045493;28;20039;-70
2022/08/17 00:55:15;;;;;;;38.97;35.13;;;19.20;99.90;;;;;;5053280;28;20428;-69
2022/08/17 00:57:44;;;;;;;43.58;39.08;;;19.20;99.90;;;;;;5048016;28;20051;-69
2022/08/17 01:00:26;;;;;;;45.28;40.53;;;19.20;99.90;;;;;;5032221;28;20142;-71
2022/08/17 01:03:06;;;;;;;43.92;39.50;;;19.20;99.90;;;;;;5047932;28;20416;-72
2022/08/17 01:05:34;;;;;;;44.28;39.65;;;19.20;99.90;;;;;;5045628;28;20045;-72
2022/08/17 01:08:01;;;;;;;48.17;40.90;;;19.10;99.90;;;;;;5049927;28;20068;-71
2022/08/17 01:10:38;;;;;;;43.08;38.67;;;19.10;99.90;;;;;;5041871;28;20091;-73
2022/08/17 01:13:05;;;;;;;42.55;38.25;;;19.10;99.90;;;;;;5050807;28;20033;-72
2022/08/17 01:15:35;;;;;;;42.17;37.65;;;19.10;99.90;;;;;;5056287;28;20119;-72
2022/08/17 01:18:01;;;;;;;44.22;39.63;;;19.10;99.90;;;;;;5027953;28;20049;-72
2022/08/17 01:20:27;;;;;;;41.08;37.10;;;19.10;99.90;;;;;;5046983;28;20052;-72
2022/08/17 01:22:53;;;;;;;44.53;39.17;;;19.10;99.90;;;;;;5044527;28;20494;-72
2022/08/17 01:25:20;;;;;;;42.15;37.60;;;19.00;99.90;;;;;;5043542;28;20123;-72
2022/08/17 01:27:47;;;;;;;42.55;38.22;;;19.00;99.90;;;;;;5048655;28;20029;-72
2022/08/17 01:30:13;;;;;;;45.45;40.63;;;19.00;99.90;;;;;;5043680;28;20119;-71
2022/08/17 01:32:39;;;;;;;50.40;41.28;;;19.00;99.90;;;;;;5047204;28;20083;-72
2022/08/17 01:35:05;;;;;;;45.88;41.03;;;19.00;99.90;;;;;;5025162;28;20041;-72
2022/08/17 01:37:35;;;;;;;47.58;42.60;;;18.90;99.90;;;;;;5048806;28;20040;-71
2022/08/17 01:40:23;;;;;;;50.42;41.67;;;18.90;99.90;;;;;;5046432;28;20377;-72
2022/08/17 01:42:57;;;;;;;46.80;41.97;;;18.90;99.90;;;;;;5048987;28;20037;-71
2022/08/17 01:45:26;;;;;;;45.00;40.47;;;18.90;99.90;;;;;;5059978;28;20091;-71
2022/08/17 01:47:53;;;;;;;47.42;42.45;;;18.80;99.90;;;;;;5043561;28;20567;-71
2022/08/17 01:50:24;;;;;;;45.92;40.42;;;18.80;99.90;;;;;;5038235;28;20076;-71
2022/08/17 01:52:53;;;;;;;47.65;42.70;;;18.80;99.90;;;;;;5045072;28;20048;-71
2022/08/17 01:55:23;;;;;;;45.50;40.83;;;18.70;99.90;;;;;;5043064;28;20048;-71
2022/08/17 01:57:49;;;;;;;44.95;40.30;;;18.70;99.90;;;;;;5042388;28;20055;-71
2022/08/17 02:00:15;;;;;;;46.40;41.60;;;18.60;99.90;;;;;;5041294;28;20037;-71
2022/08/17 02:02:43;;;;;;;41.58;37.45;;;18.50;99.90;;;;;;5056939;28;20553;-72
2022/08/17 02:05:09;;;;;;;45.10;40.20;;;18.50;99.90;;;;;;5040216;28;20119;-71
2022/08/17 02:07:35;;;;;;;46.40;41.28;;;18.50;99.90;;;;;;5039381;28;20124;-71
2022/08/17 02:10:03;;;;;;;47.78;42.63;;;18.50;99.90;;;;;;5046029;28;20054;-71
2022/08/17 02:12:30;;;;;;;46.78;41.75;;;18.50;99.90;;;;;;5042613;28;20043;-71
2022/08/17 02:14:55;;;;;;;47.33;42.17;;;18.40;99.90;;;;;;5045106;28;20033;-71
2022/08/17 02:17:21;;;;;;;46.55;41.90;;;18.40;99.90;;;;;;5044323;28;20043;-71
2022/08/17 02:19:47;;;;;;;46.53;41.80;;;18.40;99.90;;;;;;5045532;28;20400;-71
2022/08/17 02:22:12;;;;;;;49.58;41.95;;;18.40;99.90;;;;;;5042164;28;20103;-71
2022/08/17 02:24:38;;;;;;;49.40;42.78;;;18.40;99.90;;;;;;5046755;28;20044;-71
2022/08/17 02:27:05;;;;;;;49.95;44.50;;;18.40;99.90;;;;;;5043898;28;20427;-71
2022/08/17 02:29:31;;;;;;;42.30;38.05;;;18.40;99.90;;;;;;5033234;28;20534;-71
2022/08/17 02:31:57;;;;;;;43.80;39.08;;;18.40;99.90;;;;;;5046611;28;20127;-71
2022/08/17 02:34:24;;;;;;;48.78;43.47;;;18.40;99.90;;;;;;5057234;28;20037;-72
2022/08/17 02:36:51;;;;;;;43.63;38.85;;;18.40;99.90;;;;;;5042772;28;20095;-71
2022/08/17 02:39:17;;;;;;;49.35;42.30;;;18.40;99.90;;;;;;5043044;28;20047;-71
2022/08/17 02:41:43;;;;;;;52.35;44.00;;;18.40;99.90;;;;;;5048900;28;20036;-71
2022/08/17 02:44:09;;;;;;;50.42;43.67;;;18.40;99.90;;;;;;5025168;28;20050;-71
2022/08/17 02:46:35;;;;;;;47.90;42.78;;;18.50;99.90;;;;;;5041952;28;20127;-71
2022/08/17 02:49:02;;;;;;;50.30;44.83;;;18.40;99.90;;;;;;5040328;28;20167;-72
2022/08/17 02:51:27;;;;;;;46.92;40.55;;;18.40;99.90;;;;;;5024533;28;20095;-71
2022/08/17 02:53:53;;;;;;;45.92;41.10;;;18.40;99.90;;;;;;5035787;28;20480;-71
2022/08/17 02:56:19;;;;;;;45.55;40.58;;;18.40;99.90;;;;;;5040053;28;20060;-71
2022/08/17 02:58:45;;;;;;;47.03;41.92;;;18.40;99.90;;;;;;5048135;28;20921;-71
2022/08/17 03:01:11;;;;;;;48.95;43.75;;;18.40;99.90;;;;;;5063654;28;20381;-70
2022/08/17 03:03:38;;;;;;;49.65;43.58;;;18.40;99.90;;;;;;5043570;28;20487;-70
2022/08/17 03:06:05;;;;;;;44.75;40.03;;;18.40;99.90;;;;;;5042811;28;20071;-71
2022/08/17 03:08:30;;;;;;;49.38;43.97;;;18.40;99.90;;;;;;5042978;28;20044;-71
2022/08/17 03:10:56;;;;;;;48.78;43.55;;;18.30;99.90;;;;;;5030129;28;20059;-70
2022/08/17 03:13:22;;;;;;;45.22;40.58;;;18.30;99.90;;;;;;5040837;28;20116;-71
2022/08/17 03:15:49;;;;;;;48.85;43.83;;;18.40;99.90;;;;;;5040261;28;20037;-70
2022/08/17 03:18:18;;;;;;;44.55;40.08;;;18.30;99.90;;;;;;5056815;28;20354;-70
2022/08/17 03:20:44;;;;;;;43.72;39.20;;;18.30;99.90;;;;;;5038543;28;20044;-70
2022/08/17 03:23:10;;;;;;;45.60;40.47;;;18.30;99.90;;;;;;5058211;28;20037;-71
2022/08/17 03:25:40;;;;;;;46.97;41.95;;;18.30;99.90;;;;;;5059002;28;20515;-71
2022/08/17 03:28:06;;;;;;;41.35;37.15;;;18.30;99.90;;;;;;5044387;28;20486;-71
2022/08/17 03:30:32;;;;;;;41.55;36.90;;;18.30;99.90;;;;;;5041414;28;20028;-70
2022/08/17 03:33:00;;;;;;;41.28;37.20;;;18.30;99.90;;;;;;5043400;28;20032;-70
2022/08/17 03:35:29;;;;;;;42.35;35.80;;;18.30;99.90;;;;;;5038706;28;20160;-71
2022/08/17 03:37:54;;;;;;;41.40;37.38;;;18.30;99.90;;;;;;5044556;28;20086;-70
2022/08/17 03:40:20;;;;;;;42.10;37.85;;;18.30;99.90;;;;;;5044229;28;20477;-71
2022/08/17 03:42:46;;;;;;;40.53;36.53;;;18.30;99.90;;;;;;5039927;28;20041;-71
2022/08/17 03:56:40;;;;;;;41.15;36.95;;;18.30;99.90;;;;;;5037510;28;20048;-70
2022/08/17 03:56:43;;;;;;;42.22;37.67;;;18.30;99.90;;;;;;5039799;28;20005;-71
2022/08/17 03:59:18;;;;;;;39.90;35.88;;;18.30;99.90;;;;;;5025572;28;20052;-71
2022/08/17 04:01:46;;;;;;;40.63;36.58;;;18.30;99.90;;;;;;5043255;28;20043;-71
2022/08/17 04:04:12;;;;;;;41.28;37.15;;;18.30;99.90;;;;;;5057266;28;20047;-71
2022/08/17 04:06:39;;;;;;;41.30;37.30;;;18.30;99.90;;;;;;5039177;28;20548;-70
2022/08/17 04:09:06;;;;;;;39.92;35.78;;;18.30;99.90;;;;;;5040090;28;20099;-71
2022/08/17 04:11:32;;;;;;;41.08;36.75;;;18.20;99.90;;;;;;5047745;28;20041;-71
2022/08/17 04:13:58;;;;;;;40.80;36.55;;;18.30;99.90;;;;;;5047238;28;20048;-71
2022/08/17 04:16:24;;;;;;;39.17;35.08;;;18.30;99.90;;;;;;5060858;28;20033;-71
2022/08/17 04:18:51;;;;;;;42.63;38.13;;;18.20;99.90;;;;;;5047357;28;20555;-71
2022/08/17 04:21:18;;;;;;;40.38;36.10;;;18.20;99.90;;;;;;5041590;28;20143;-71
2022/08/17 04:23:43;;;;;;;38.40;34.58;;;18.30;99.90;;;;;;5042113;28;20041;-71
2022/08/17 04:26:09;;;;;;;38.88;34.92;;;18.30;99.90;;;;;;5038070;28;20082;-71
2022/08/17 04:28:35;;;;;;;41.70;37.25;;;18.20;99.90;;;;;;5035940;28;20036;-71
2022/08/17 04:31:00;;;;;;;39.38;35.00;;;18.30;99.90;;;;;;5020104;28;20040;-71
2022/08/17 04:33:28;;;;;;;39.17;34.97;;;18.30;99.90;;;;;;5021991;28;20143;-71
2022/08/17 04:36:00;;;;;;;37.50;33.58;;;18.30;99.90;;;;;;5059931;28;20035;-71
2022/08/17 04:38:33;;;;;;;42.78;38.38;;;18.30;99.90;;;;;;5059599;28;20072;-71
2022/08/17 04:43:46;;;;;;;41.78;37.75;;;18.30;99.90;;;;;;5038668;28;20047;-71
2022/08/17 04:46:15;;;;;;;41.55;37.28;;;18.30;99.90;;;;;;5045191;28;20555;-71
2022/08/17 04:48:43;;;;;;;42.97;38.17;;;18.20;99.90;;;;;;5043377;28;20399;-71
2022/08/17 04:51:21;;;;;;;43.00;38.80;;;18.20;99.90;;;;;;5038638;28;20040;-71
2022/08/17 04:53:51;;;;;;;42.92;38.55;;;18.20;99.90;;;;;;5035545;28;20071;-71
2022/08/17 04:56:17;;;;;;;42.60;38.15;;;18.20;99.90;;;;;;5024710;28;20065;-71
2022/08/17 04:58:46;;;;;;;41.70;37.25;;;18.20;99.90;;;;;;5037990;28;20041;-71
2022/08/17 05:01:13;;;;;;;42.08;37.70;;;18.20;99.90;;;;;;5041804;28;20041;-71
2022/08/17 05:03:38;;;;;;;43.75;39.08;;;18.20;99.90;;;;;;5043289;28;20044;-71
2022/08/17 05:06:04;;;;;;;44.78;40.08;;;18.20;99.90;;;;;;5062456;28;20040;-71
2022/08/17 05:08:30;;;;;;;42.45;38.28;;;18.30;99.90;;;;;;5044772;28;20112;-71
2022/08/17 05:10:56;;;;;;;42.70;38.45;;;18.20;99.90;;;;;;5042952;28;20171;-71
2022/08/17 05:13:24;;;;;;;42.38;38.05;;;18.30;99.90;;;;;;5045648;28;20029;-71
2022/08/17 05:15:54;;;;;;;45.78;40.78;;;18.40;99.90;;;;;;5050523;28;20105;-71
2022/08/17 05:18:19;;;;;;;46.03;41.00;;;18.40;99.90;;;;;;5054344;28;20052;-71
2022/08/17 05:20:45;;;;;;;42.08;37.67;;;18.40;99.90;;;;;;5066659;28;20040;-71
2022/08/17 05:23:14;;;;;;;43.97;39.63;;;18.40;99.90;;;;;;5051253;28;20119;-71
2022/08/17 05:25:42;;;;;;;44.22;39.58;;;18.40;99.90;;;;;;5055028;28;20044;-71
2022/08/17 05:28:09;;;;;;;44.95;39.97;;;18.50;99.90;;;;;;5054816;28;20070;-71
2022/08/17 05:30:37;;;;;;;41.80;37.53;;;18.50;99.90;;;;;;5055204;28;20138;-71
2022/08/17 05:33:09;;;;;;;43.28;38.83;;;18.60;99.90;;;;;;5056180;28;20075;-71
2022/08/17 05:35:38;;;;;;;43.10;38.78;;;18.60;99.90;;;;;;5051153;28;20123;-71
2022/08/17 05:38:04;;;;;;;42.53;38.22;;;18.70;99.90;;;;;;5053729;28;20051;-71
2022/08/17 05:40:30;;;;;;;43.53;39.28;;;18.60;99.90;;;;;;5052570;28;20060;-71
2022/08/17 05:43:05;;;;;;;41.15;37.10;;;18.60;99.90;;;;;;5072453;28;20044;-71
2022/08/17 05:45:31;;;;;;;41.72;37.50;;;18.60;99.90;;;;;;5053145;28;20041;-71
2022/08/17 05:47:57;;;;;;;44.58;39.92;;;18.70;99.90;;;;;;5055977;28;20036;-71
2022/08/17 05:50:32;;;;;;;41.10;37.20;;;18.70;99.90;;;;;;5075010;28;20096;-71
2022/08/17 05:53:16;;;;;;;42.92;38.47;;;18.80;99.90;;;;;;5056894;28;20037;-71
2022/08/17 05:55:42;;;;;;;42.22;37.95;;;18.80;99.90;;;;;;5056316;28;20064;-71
2022/08/17 05:58:31;;;;;;;42.95;38.58;;;18.80;99.90;;;;;;5057264;28;20052;-71
2022/08/17 06:01:14;;;;;;;39.40;35.53;;;18.90;99.90;;;;;;5049368;28;20400;-71
2022/08/17 06:04:14;;;;;;;42.47;38.33;;;18.90;99.90;;;;;;5058620;28;20055;-71
2022/08/17 06:06:52;;;;;;;40.53;36.65;;;19.00;99.90;;;;;;5047860;28;20501;-71
2022/08/17 06:09:32;;;;;;;38.22;34.38;;;19.00;99.90;;;;;;5050835;28;20064;-71
2022/08/17 06:12:37;;;;;;;37.45;33.58;;;19.00;99.90;;;;;;5042003;28;20048;-71
2022/08/17 06:15:28;;;;;;;36.28;32.90;;;19.10;99.90;;;;;;5054127;28;20048;-71
2022/08/17 06:17:59;;;;;;;36.65;33.03;;;19.10;99.90;;;;;;5080515;28;20044;-74
2022/08/17 06:20:28;;;;;;;39.15;35.15;;;19.20;99.90;;;;;;5053821;28;20047;-71
2022/08/17 06:23:02;;;;;;;39.80;35.65;;;19.20;99.90;;;;;;5060330;28;20067;-71
2022/08/17 06:25:32;;;;;;;37.40;33.58;;;19.30;99.90;;;;;;5052783;28;20473;-71
2022/08/17 06:28:03;;;;;;;39.55;35.72;;;19.30;99.90;;;;;;5054338;28;20049;-71
2022/08/17 06:30:35;;;;;;;35.13;31.73;;;19.40;99.90;;;;;;5076779;28;20097;-71
2022/08/17 06:33:05;;;;;;;37.20;33.50;;;19.40;99.90;;;;;;5078433;28;20067;-71
2022/08/17 06:35:34;;;;;;;33.90;30.70;;;19.50;99.90;;;;;;5061932;28;20053;-71
2022/08/17 06:38:41;;;;;;;35.70;31.98;;;19.50;99.90;;;;;;5060149;28;20052;-71
2022/08/17 06:41:16;;;;;;;37.78;34.10;;;19.60;99.90;;;;;;5062643;28;20067;-71
2022/08/17 06:43:55;;;;;;;39.58;35.75;;;19.60;99.90;;;;;;5067102;28;20041;-72
2022/08/17 06:46:34;;;;;;;37.97;34.17;;;19.70;99.90;;;;;;5052788;28;20049;-71
2022/08/17 06:49:15;;;;;;;38.42;34.70;;;19.70;99.90;;;;;;5069066;28;20037;-71
2022/08/17 06:52:13;;;;;;;41.08;37.08;;;19.70;99.90;;;;;;5070031;28;20491;-71
2022/08/17 06:55:05;;;;;;;38.35;34.58;;;19.80;99.90;;;;;;5048201;28;20075;-71
2022/08/17 06:57:36;;;;;;;40.15;36.45;;;19.80;99.90;;;;;;5043099;28;20045;-72
2022/08/17 07:00:22;;;;;;;39.00;35.10;;;19.90;99.90;;;;;;5050421;28;20064;-72
2022/08/17 07:03:31;;;;;;;39.20;35.40;;;19.90;99.90;;;;;;5050366;28;20056;-71
2022/08/17 07:06:13;;;;;;;38.40;34.63;;;20.00;99.90;;;;;;5053062;28;20049;-71
2022/08/17 07:08:57;;;;;;;41.80;37.60;;;20.00;99.90;;;;;;5069840;28;20099;-73
2022/08/17 07:11:44;;;;;;;40.78;36.70;;;20.10;99.90;;;;;;5065950;28;20064;-72
2022/08/17 07:14:39;;;;;;;41.75;37.40;;;20.10;99.90;;;;;;5042449;28;20863;-72
2022/08/17 07:17:14;;;;;;;42.92;38.53;;;20.10;99.90;;;;;;5042184;28;20082;-72
2022/08/17 07:19:44;;;;;;;42.97;38.50;;;20.10;99.90;;;;;;5045976;28;20060;-72
2022/08/17 07:22:15;;;;;;;42.05;37.90;;;20.10;99.90;;;;;;5051637;28;20044;-72
2022/08/17 07:25:04;;;;;;;41.72;36.78;;;20.20;99.90;;;;;;5050376;28;20041;-72
2022/08/17 07:27:41;;;;;;;40.70;36.70;;;20.30;99.90;;;;;;5044725;28;20107;-72
2022/08/17 07:30:18;;;;;;;41.22;37.22;;;20.40;99.90;;;;;;5049101;28;20127;-72
2022/08/17 07:32:52;;;;;;;41.53;37.20;;;20.40;99.90;;;;;;5047696;28;20594;-72
2022/08/17 07:35:40;;;;;;;42.13;38.00;;;20.50;99.90;;;;;;5043882;28;20051;-72
2022/08/17 07:38:27;;;;;;;41.88;37.70;;;20.50;99.90;;;;;;5043118;28;20041;-71
2022/08/17 07:41:04;;;;;;;41.30;37.30;;;20.70;99.90;;;;;;5044902;28;20412;-71
2022/08/17 07:43:46;;;;;;;45.80;38.97;;;20.70;99.90;;;;;;5055929;28;20044;-72
2022/08/17 07:49:02;;;;;;;44.42;39.92;;;20.80;99.90;;;;;;5042464;28;20078;-72
2022/08/17 07:51:32;;;;;;;44.10;39.72;;;20.70;99.90;;;;;;5029086;28;20048;-72
2022/08/17 07:54:01;;;;;;;44.88;40.65;;;20.70;99.90;;;;;;5025814;28;20048;-72
2022/08/17 07:56:36;;;;;;;44.80;40.28;;;20.80;99.90;;;;;;5043499;28;20080;-72
2022/08/17 07:59:09;;;;;;;47.15;42.67;;;21.10;99.90;;;;;;5040667;28;20044;-72
2022/08/17 08:01:36;;;;;;;46.50;41.53;;;21.40;99.90;;;;;;5049048;28;20511;-72
2022/08/17 08:04:38;;;;;;;47.55;42.65;;;21.50;99.90;;;;;;5051376;28;20122;-73
2022/08/17 08:07:09;;;;;;;44.25;40.05;;;21.70;99.90;;;;;;5047435;28;20090;-72
2022/08/17 08:10:05;;;;;;;39.33;35.33;;;21.80;99.90;;;;;;5050051;28;20052;-72
2022/08/17 08:12:38;;;;;;;42.05;38.08;;;21.80;99.90;;;;;;5039432;28;20052;-72
2022/08/17 08:15:17;;;;;;;42.05;37.92;;;21.80;99.90;;;;;;5042798;28;20052;-71
2022/08/17 08:17:59;;;;;;;44.33;39.95;;;21.80;99.90;;;;;;5030580;28;20044;-72
2022/08/17 08:20:44;;;;;;;41.67;37.65;;;21.70;99.90;;;;;;5042759;28;20037;-72
2022/08/17 08:23:17;;;;;;;41.50;37.20;;;21.70;99.90;;;;;;5050042;28;20060;-72
2022/08/17 08:26:07;;;;;;;39.13;35.30;;;21.70;99.90;;;;;;5047035;28;20059;-73
2022/08/17 08:28:54;;;;;;;39.03;35.30;;;21.80;99.90;;;;;;5024826;28;20079;-71
2022/08/17 08:31:28;;;;;;;38.78;34.97;;;21.90;99.90;;;;;;5042042;28;20152;-72
2022/08/17 08:34:22;;;;;;;38.10;34.47;;;22.00;99.90;;;;;;5043404;28;20452;-73
2022/08/17 08:37:08;;;;;;;38.38;34.60;;;22.10;99.90;;;;;;5047570;28;20041;-74
2022/08/17 08:40:00;;;;;;;36.70;33.15;;;22.10;99.90;;;;;;5031823;28;20408;-71
2022/08/17 08:42:51;;;;;;;35.70;32.08;;;22.30;99.90;;;;;;5027981;28;20049;-72
2022/08/17 08:45:41;;;;;;;34.53;31.05;;;22.70;99.90;;;;;;5070468;28;20142;-73
2022/08/17 08:48:16;;;;;;;36.58;33.03;;;23.20;99.90;;;;;;5055906;28;20468;-72
2022/08/17 08:50:56;;;;;;;33.20;29.83;;;23.60;99.90;;;;;;5053986;28;20068;-72
2022/08/17 08:53:40;;;;;;;33.85;30.67;;;23.80;99.90;;;;;;5048508;28;20045;-72
2022/08/17 08:56:15;;;;;;;33.78;30.42;;;23.70;99.90;;;;;;5044563;28;20094;-71
2022/08/17 08:58:58;;;;;;;33.08;29.98;;;23.40;99.90;;;;;;5056654;28;20053;-72
2022/08/17 09:01:46;;;;;;;31.65;28.45;;;23.10;99.90;;;;;;5053029;28;20057;-72
2022/08/17 09:04:30;;;;;;;31.25;28.25;;;23.00;99.90;;;;;;5059066;28;20047;-72
2022/08/17 09:07:30;;;;;;;33.28;30.17;;;23.00;99.90;;;;;;5039208;28;20061;-72
2022/08/17 09:10:21;;;;;;;35.95;32.65;;;23.00;99.90;;;;;;5053056;28;20060;-71
2022/08/17 09:13:23;;;;;;;35.70;32.17;;;22.90;99.90;;;;;;5045384;28;20052;-71
2022/08/17 09:15:57;;;;;;;33.35;30.10;;;22.80;99.90;;;;;;5069862;28;20099;-72
2022/08/17 09:18:32;;;;;;;;;;;22.60;99.90;;;;;;5049098;28;20040;-73
2022/08/17 09:21:00;;;;;;;;;;;22.40;99.90;;;;;;5059534;28;19935;-73
2022/08/17 09:23:41;;;;;;;34.13;30.77;;;22.30;99.90;;;;;;5068255;28;20030;-73
2022/08/17 09:26:13;;;;;;;35.67;32.30;;;22.30;99.90;;;;;;5035534;28;20047;-71
2022/08/17 09:28:43;;;;;;;36.50;33.15;;;22.40;99.90;;;;;;5051369;28;20510;-72
2022/08/17 09:31:16;;;;;;;37.50;33.83;;;22.40;99.90;;;;;;5051116;28;20057;-72
2022/08/17 09:33:44;;;;;;;33.80;30.65;;;22.60;99.90;;;;;;5041867;28;20053;-73
2022/08/17 09:36:20;;;;;;;38.17;34.78;;;22.80;99.90;;;;;;5031729;28;20039;-72
2022/08/17 09:39:07;;;;;;;37.30;33.67;;;22.90;99.90;;;;;;5048809;28;20045;-73
2022/08/17 09:42:05;;;;;;;36.70;33.40;;;22.80;99.90;;;;;;5048669;28;20405;-72
2022/08/17 09:45:05;;;;;;;35.75;32.30;;;22.80;99.90;;;;;;5050716;28;20158;-71
2022/08/17 09:47:48;;;;;;;38.72;35.22;;;22.80;99.90;;;;;;5049725;28;20059;-73
2022/08/17 09:50:18;;;;;;;35.03;31.67;;;22.70;99.90;;;;;;5054386;28;20068;-73
2022/08/17 09:52:44;;;;;;;40.97;37.28;;;22.70;99.90;;;;;;5052105;28;20245;-72
2022/08/17 09:55:11;;;;;;;38.50;34.85;;;22.70;99.90;;;;;;5051421;28;20048;-73
2022/08/17 09:57:42;;;;;;;39.25;35.20;;;22.70;99.90;;;;;;5035613;28;20049;-73
2022/08/17 10:00:26;;;;;;;39.60;35.78;;;22.70;99.90;;;;;;5035248;28;20420;-74
2022/08/17 10:02:57;;;;;;;38.40;34.60;;;22.80;99.90;;;;;;5052659;28;20331;-74
2022/08/17 10:05:36;;;;;;;37.85;34.22;;;22.80;99.90;;;;;;5052879;28;20068;-74
2022/08/17 10:08:29;;;;;;;36.70;33.42;;;23.00;99.90;;;;;;5048251;28;20043;-74
2022/08/17 10:11:10;;;;;;;35.72;32.40;;;23.10;99.90;;;;;;5060622;28;20536;-73
2022/08/17 10:13:47;;;;;;;35.33;31.90;;;23.40;99.90;;;;;;5053657;28;20051;-72
2022/08/17 10:16:37;;;;;;;38.33;34.38;;;23.60;99.90;;;;;;5052098;28;20072;-72
2022/08/17 10:19:12;;;;;;;33.70;30.38;;;23.60;99.90;;;;;;5052035;28;20368;-73
2022/08/17 10:27:38;;;;;;;31.13;28.30;;;24.10;99.90;;;;;;5059070;28;20048;-72
2022/08/17 10:30:06;;;;;;;28.90;26.05;;;24.40;99.90;;;;;;5053419;28;20114;-73
2022/08/17 10:32:45;;;;;;;32.58;29.45;;;24.90;99.90;;;;;;5059670;28;20052;-73
2022/08/17 10:35:32;;;;;;;29.80;26.95;;;25.50;99.90;;;;;;5035456;28;20051;-72
2022/08/17 10:38:07;;;;;;;28.10;25.40;;;25.70;99.90;;;;;;5049431;28;20070;-72
2022/08/17 10:40:57;;;;;;;25.45;23.08;;;25.70;99.90;;;;;;5055035;28;20044;-72
2022/08/17 10:43:44;;;;;;;24.08;21.83;;;25.60;99.90;;;;;;5053238;28;20052;-72
2022/08/17 10:46:16;;;;;;;20.73;18.70;;;25.60;99.90;;;;;;5055951;28;20041;-71
2022/08/17 10:48:42;;;;;;;21.33;19.42;;;25.80;99.90;;;;;;5057096;28;20450;-72
2022/08/17 10:51:38;;;;;;;22.65;18.80;;;26.00;99.90;;;;;;5051819;28;20054;-72
2022/08/17 10:54:22;;;;;;;22.20;20.15;;;26.40;99.60;;;;;;5063486;28;20523;-73
2022/08/17 10:56:52;;;;;;;23.48;21.48;;;26.60;98.90;;;;;;5041706;28;20048;-72
2022/08/17 10:59:36;;;;;;;24.50;22.13;;;26.60;99.40;;;;;;5053599;28;20055;-72
2022/08/17 11:02:13;;;;;;;23.27;21.20;;;26.50;97.60;;;;;;5073118;28;20345;-72
2022/08/17 11:05:02;;;;;;;22.23;19.95;;;26.30;99.00;;;;;;5063987;28;20128;-71
2022/08/17 11:07:33;;;;;;;21.63;19.63;;;26.40;99.60;;;;;;5024659;28;20049;-72
2022/08/17 11:10:17;;;;;;;20.65;18.65;;;26.60;97.70;;;;;;5073176;28;20078;-72
2022/08/17 11:13:06;;;;;;;21.73;19.60;;;26.50;98.10;;;;;;5059144;28;20079;-71
2022/08/17 11:15:56;;;;;;;17.83;16.17;;;26.50;96.70;;;;;;5054627;28;20045;-71
2022/08/17 11:18:43;;;;;;;18.00;16.40;;;26.40;97.00;;;;;;5063843;28;20048;-72
2022/08/17 11:21:21;;;;;;;19.45;17.65;;;26.40;96.90;;;;;;5061504;28;20119;-72
2022/08/17 11:23:56;;;;;;;22.85;18.40;;;26.20;96.10;;;;;;5075474;28;20043;-72
2022/08/17 11:26:28;;;;;;;16.88;15.27;;;25.90;96.20;;;;;;5078111;28;20071;-72
2022/08/17 11:29:15;;;;;;;17.67;15.93;;;25.80;96.20;;;;;;5058589;28;20068;-71
2022/08/17 11:31:45;;;;;;;16.42;14.98;;;25.70;96.30;;;;;;5061273;28;20045;-71
2022/08/17 11:34:25;;;;;;;14.75;13.30;;;25.60;96.70;;;;;;5062709;28;20127;-71
2022/08/17 11:37:27;;;;;;;16.33;14.50;;;25.70;96.40;;;;;;5073484;28;20140;-71
2022/08/17 11:40:13;;;;;;;17.88;16.02;;;25.50;96.00;;;;;;5048234;28;20512;-71
2022/08/17 11:42:41;;;;;;;19.23;17.52;;;25.30;96.30;;;;;;5068670;28;20068;-71
2022/08/17 11:45:32;;;;;;;20.88;18.83;;;25.10;97.00;;;;;;5050406;28;20095;-72
2022/08/17 11:51:32;;;;;;;20.98;18.45;;;24.90;98.70;;;;;;5070730;28;20127;-71
2022/08/17 11:54:06;;;;;;;18.63;16.95;;;24.90;98.30;;;;;;5061179;28;20059;-72
2022/08/17 11:56:39;;;;;;;19.45;17.63;;;24.80;98.70;;;;;;5058419;28;20040;-71
2022/08/17 11:59:40;;;;;;;18.10;16.25;;;24.90;98.70;;;;;;5058412;28;20134;-72
2022/08/17 12:02:26;;;;;;;17.98;16.13;;;24.90;98.60;;;;;;5052775;28;20072;-72
2022/08/17 12:05:21;;;;;;;15.85;14.45;;;24.90;98.50;;;;;;5057322;28;20041;-72
2022/08/17 12:08:14;;;;;;;16.85;15.25;;;24.90;99.10;;;;;;5056080;28;20232;-72
2022/08/17 12:11:09;;;;;;;16.70;15.13;;;24.90;98.40;;;;;;5057341;28;20064;-73
2022/08/17 12:13:44;;;;;;;16.25;14.68;;;24.90;98.80;;;;;;5057378;28;20067;-72
2022/08/17 12:16:19;;;;;;;16.80;15.02;;;24.90;98.70;;;;;;5063802;28;20071;-72
2022/08/17 12:19:01;;;;;;;18.23;16.60;;;24.80;98.80;;;;;;5058898;28;20098;-72
2022/08/17 12:21:31;;;;;;;17.58;15.98;;;24.70;99.10;;;;;;5063775;28;20546;-72
2022/08/17 12:24:30;;;;;;;18.05;16.25;;;24.60;99.80;;;;;;5066967;28;20055;-72
2022/08/17 12:27:01;;;;;;;18.08;16.58;;;24.50;99.90;;;;;;5057206;28;20041;-71
2022/08/17 12:29:28;;;;;;;19.20;17.52;;;24.40;99.90;;;;;;5055878;28;20037;-72
2022/08/17 12:31:55;;;;;;;19.25;17.42;;;24.30;99.90;;;;;;5059292;28;20035;-72
2022/08/17 12:34:22;;;;;;;18.83;17.27;;;24.20;99.90;;;;;;5058106;28;20044;-71
2022/08/17 12:36:50;;;;;;;19.58;17.23;;;24.20;99.90;;;;;;5044235;28;20158;-72
2022/08/17 12:39:22;;;;;;;20.65;18.83;;;24.10;99.90;;;;;;5059925;28;20040;-72
2022/08/17 12:41:52;;;;;;;20.83;18.85;;;24.10;99.90;;;;;;5054145;28;20067;-72
2022/08/17 12:44:31;;;;;;;20.88;18.80;;;24.10;99.90;;;;;;5047809;28;20075;-73
2022/08/17 12:47:13;;;;;;;19.88;18.10;;;24.00;99.90;;;;;;5056014;28;20047;-72
2022/08/17 12:49:41;;;;;;;20.60;18.90;;;24.00;99.90;;;;;;5057467;28;20474;-67
2022/08/17 12:52:23;;;;;;;18.20;16.33;;;24.00;99.90;;;;;;5064871;28;20041;-66
2022/08/17 12:54:51;;;;;;;16.90;15.38;;;24.00;99.90;;;;;;5065760;28;20043;-66
2022/08/17 12:57:25;;;;;;;17.58;15.98;;;24.00;99.90;;;;;;5062263;28;20064;-68
2022/08/17 12:59:57;;;;;;;16.60;15.10;;;24.00;99.90;;;;;;5061912;28;20043;-67
2022/08/17 13:02:58;;;;;;;16.33;14.95;;;24.00;99.90;;;;;;5065362;28;20033;-68
2022/08/17 13:05:36;;;;;;;16.40;14.75;;;23.90;99.90;;;;;;5049232;28;20040;-67
2022/08/17 13:08:27;;;;;;;16.65;14.23;;;24.00;99.90;;;;;;5062820;28;20036;-67
2022/08/17 13:10:59;;;;;;;16.92;15.30;;;24.30;99.90;;;;;;5042564;28;20250;-67
2022/08/17 13:13:28;;;;;;;16.52;15.02;;;24.30;99.90;;;;;;5067886;28;20614;-66
2022/08/17 13:15:57;;;;;;;16.48;14.88;;;24.30;99.90;;;;;;5063775;28;20113;-66
2022/08/17 13:18:28;;;;;;;15.80;14.40;;;24.20;99.90;;;;;;5058637;28;20053;-66
2022/08/17 13:20:57;;;;;;;13.70;12.35;;;24.10;99.90;;;;;;5065130;28;20500;-69
2022/08/17 13:23:25;;;;;;;13.05;11.57;;;24.00;99.90;;;;;;5067767;28;20477;-66
2022/08/17 13:26:14;;;;;;;14.02;12.73;;;24.00;99.90;;;;;;5069518;28;20427;-66
2022/08/17 13:28:48;;;;;;;13.23;12.02;;;24.00;99.90;;;;;;5061365;28;20033;-66